sensor_id;sensor_type;location;lat;lon;timestamp;pressure;altitude;pressure_sealevel;temperature;humidity
61761;BME280;47664;51.660;-0.100;2022-12-08T00:00:42;100867.21;;;-1.93;63.05
61761;BME280;47664;51.660;-0.100;2022-12-08T00:03:14;100865.45;;;-0.65;62.48
61761;BME280;47664;51.660;-0.100;2022-12-08T00:05:48;100858.39;;;-0.72;62.73
61761;BME280;47664;51.660;-0.100;2022-12-08T00:08:21;100855.78;;;-0.90;62.56
61761;BME280;47664;51.660;-0.100;2022-12-08T00:10:53;100854.15;;;-1.30;63.60
61761;BME280;47664;51.660;-0.100;2022-12-08T00:13:25;100848.27;;;-1.63;64.45
61761;BME280;47664;51.660;-0.100;2022-12-08T00:15:58;100839.76;;;-1.34;64.63
61761;BME280;47664;51.660;-0.100;2022-12-08T00:18:30;100839.96;;;-1.59;64.46
61761;BME280;47664;51.660;-0.100;2022-12-08T00:21:03;100832.38;;;-0.99;63.51
61761;BME280;47664;51.660;-0.100;2022-12-08T00:23:35;100829.68;;;-0.79;62.70
61761;BME280;47664;51.660;-0.100;2022-12-08T00:26:07;100828.58;;;-0.63;62.47
61761;BME280;47664;51.660;-0.100;2022-12-08T00:28:39;100826.44;;;-0.97;62.93
61761;BME280;47664;51.660;-0.100;2022-12-08T00:31:12;100826.39;;;-1.04;63.35
61761;BME280;47664;51.660;-0.100;2022-12-08T00:33:44;100827.72;;;-0.95;63.08
61761;BME280;47664;51.660;-0.100;2022-12-08T00:36:17;100832.30;;;-1.18;63.97
61761;BME280;47664;51.660;-0.100;2022-12-08T00:38:50;100835.02;;;-1.10;63.65
61761;BME280;47664;51.660;-0.100;2022-12-08T00:41:23;100827.84;;;-0.91;64.00
61761;BME280;47664;51.660;-0.100;2022-12-08T00:43:56;100824.72;;;-1.32;64.18
61761;BME280;47664;51.660;-0.100;2022-12-08T00:46:28;100822.42;;;-1.49;64.73
61761;BME280;47664;51.660;-0.100;2022-12-08T00:49:00;100817.10;;;-1.46;64.67
61761;BME280;47664;51.660;-0.100;2022-12-08T00:51:32;100813.94;;;-1.46;64.41
61761;BME280;47664;51.660;-0.100;2022-12-08T00:54:05;100813.40;;;-1.48;64.34
61761;BME280;47664;51.660;-0.100;2022-12-08T00:56:38;100804.46;;;-1.20;64.03
61761;BME280;47664;51.660;-0.100;2022-12-08T00:59:10;100801.00;;;-1.16;63.80
61761;BME280;47664;51.660;-0.100;2022-12-08T01:01:43;100801.09;;;-1.47;63.84
61761;BME280;47664;51.660;-0.100;2022-12-08T01:04:17;100805.11;;;-1.68;65.07
61761;BME280;47664;51.660;-0.100;2022-12-08T01:06:50;100797.29;;;-1.46;63.99
61761;BME280;47664;51.660;-0.100;2022-12-08T01:09:23;100794.06;;;-1.16;63.16
61761;BME280;47664;51.660;-0.100;2022-12-08T01:11:55;100788.72;;;-0.85;62.28
61761;BME280;47664;51.660;-0.100;2022-12-08T01:14:27;100785.96;;;-0.62;63.04
61761;BME280;47664;51.660;-0.100;2022-12-08T01:17:00;100782.73;;;-1.61;64.04
61761;BME280;47664;51.660;-0.100;2022-12-08T01:19:33;100777.35;;;-0.81;63.07
61761;BME280;47664;51.660;-0.100;2022-12-08T01:22:05;100774.61;;;-0.85;62.67
61761;BME280;47664;51.660;-0.100;2022-12-08T01:24:37;100775.31;;;-1.27;63.81
61761;BME280;47664;51.660;-0.100;2022-12-08T01:27:10;100773.10;;;-1.21;64.07
61761;BME280;47664;51.660;-0.100;2022-12-08T01:29:42;100769.51;;;-1.05;63.89
61761;BME280;47664;51.660;-0.100;2022-12-08T01:32:13;100769.24;;;-1.10;63.71
61761;BME280;47664;51.660;-0.100;2022-12-08T01:34:46;100766.68;;;-1.49;63.73
61761;BME280;47664;51.660;-0.100;2022-12-08T01:37:18;100765.76;;;-1.63;64.66
61761;BME280;47664;51.660;-0.100;2022-12-08T01:39:50;100760.53;;;-1.20;64.15
61761;BME280;47664;51.660;-0.100;2022-12-08T01:42:24;100757.86;;;-1.46;63.64
61761;BME280;47664;51.660;-0.100;2022-12-08T01:44:55;100752.93;;;-1.39;63.19
61761;BME280;47664;51.660;-0.100;2022-12-08T01:47:32;100749.93;;;-1.08;62.42
61761;BME280;47664;51.660;-0.100;2022-12-08T01:50:06;100751.39;;;-1.39;63.11
61761;BME280;47664;51.660;-0.100;2022-12-08T01:52:43;100751.25;;;-1.27;63.49
61761;BME280;47664;51.660;-0.100;2022-12-08T01:55:16;100753.64;;;-1.52;63.51
61761;BME280;47664;51.660;-0.100;2022-12-08T01:57:52;100753.71;;;-1.38;63.16
61761;BME280;47664;51.660;-0.100;2022-12-08T02:00:27;100751.80;;;-1.45;63.57
61761;BME280;47664;51.660;-0.100;2022-12-08T02:03:02;100749.91;;;-1.29;62.76
61761;BME280;47664;51.660;-0.100;2022-12-08T02:05:38;100748.42;;;-0.95;62.16
61761;BME280;47664;51.660;-0.100;2022-12-08T02:08:11;100753.22;;;-1.26;62.51
61761;BME280;47664;51.660;-0.100;2022-12-08T02:10:45;100754.53;;;-1.39;62.31
61761;BME280;47664;51.660;-0.100;2022-12-08T02:13:15;100751.93;;;-1.43;62.18
61761;BME280;47664;51.660;-0.100;2022-12-08T02:15:50;100749.96;;;-0.87;62.24
61761;BME280;47664;51.660;-0.100;2022-12-08T02:18:34;100743.51;;;-1.02;62.13
61761;BME280;47664;51.660;-0.100;2022-12-08T02:21:16;100744.70;;;-1.38;62.57
61761;BME280;47664;51.660;-0.100;2022-12-08T02:23:50;100740.48;;;-1.05;61.87
61761;BME280;47664;51.660;-0.100;2022-12-08T02:27:37;100738.96;;;-0.45;60.27
61761;BME280;47664;51.660;-0.100;2022-12-08T02:30:19;100735.91;;;-0.65;59.51
61761;BME280;47664;51.660;-0.100;2022-12-08T02:35:08;100727.51;;;0.07;59.62
61761;BME280;47664;51.660;-0.100;2022-12-08T02:37:46;100723.88;;;-0.08;58.50
61761;BME280;47664;51.660;-0.100;2022-12-08T02:40:21;100723.88;;;-0.64;59.04
61761;BME280;47664;51.660;-0.100;2022-12-08T02:42:55;100723.54;;;-0.49;59.32
61761;BME280;47664;51.660;-0.100;2022-12-08T02:45:27;100720.69;;;-0.49;58.94
61761;BME280;47664;51.660;-0.100;2022-12-08T02:48:02;100712.92;;;-0.40;59.57
61761;BME280;47664;51.660;-0.100;2022-12-08T02:50:34;100708.71;;;-0.69;59.65
61761;BME280;47664;51.660;-0.100;2022-12-08T02:53:07;100708.68;;;-0.75;60.13
61761;BME280;47664;51.660;-0.100;2022-12-08T02:55:44;100704.19;;;-0.67;59.81
61761;BME280;47664;51.660;-0.100;2022-12-08T02:58:31;100700.73;;;-0.92;59.79
61761;BME280;47664;51.660;-0.100;2022-12-08T03:01:18;100698.03;;;-0.54;60.00
61761;BME280;47664;51.660;-0.100;2022-12-08T03:03:58;100690.08;;;-0.55;58.96
61761;BME280;47664;51.660;-0.100;2022-12-08T03:06:33;100687.12;;;-0.65;59.33
61761;BME280;47664;51.660;-0.100;2022-12-08T03:09:08;100689.91;;;-0.31;58.58
61761;BME280;47664;51.660;-0.100;2022-12-08T03:11:41;100685.33;;;-0.16;57.58
61761;BME280;47664;51.660;-0.100;2022-12-08T03:14:16;100679.04;;;-0.11;56.88
61761;BME280;47664;51.660;-0.100;2022-12-08T03:16:52;100674.20;;;-0.05;56.76
61761;BME280;47664;51.660;-0.100;2022-12-08T03:19:29;100671.62;;;0.01;56.59
61761;BME280;47664;51.660;-0.100;2022-12-08T03:22:10;100668.00;;;0.25;55.98
61761;BME280;47664;51.660;-0.100;2022-12-08T03:24:45;100662.35;;;0.17;55.76
61761;BME280;47664;51.660;-0.100;2022-12-08T03:27:20;100664.69;;;-0.48;56.40
61761;BME280;47664;51.660;-0.100;2022-12-08T03:29:56;100663.66;;;-0.33;57.52
61761;BME280;47664;51.660;-0.100;2022-12-08T03:32:29;100657.11;;;-0.22;57.29
61761;BME280;47664;51.660;-0.100;2022-12-08T03:35:07;100657.81;;;-0.83;58.35
61761;BME280;47664;51.660;-0.100;2022-12-08T03:37:41;100657.50;;;-1.02;59.32
61761;BME280;47664;51.660;-0.100;2022-12-08T03:40:17;100649.64;;;-0.99;59.68
61761;BME280;47664;51.660;-0.100;2022-12-08T03:42:49;100642.41;;;-0.51;58.81
61761;BME280;47664;51.660;-0.100;2022-12-08T03:45:21;100643.40;;;-0.78;58.24
61761;BME280;47664;51.660;-0.100;2022-12-08T03:47:54;100643.66;;;-0.67;58.57
61761;BME280;47664;51.660;-0.100;2022-12-08T03:50:27;100639.30;;;-1.11;59.68
61761;BME280;47664;51.660;-0.100;2022-12-08T03:52:59;100638.12;;;-1.42;61.51
61761;BME280;47664;51.660;-0.100;2022-12-08T03:55:31;100634.92;;;-1.83;61.64
61761;BME280;47664;51.660;-0.100;2022-12-08T03:58:04;100633.00;;;-1.45;62.35
61761;BME280;47664;51.660;-0.100;2022-12-08T04:00:36;100634.23;;;-1.33;61.64
61761;BME280;47664;51.660;-0.100;2022-12-08T04:03:08;100631.49;;;-1.57;61.34
61761;BME280;47664;51.660;-0.100;2022-12-08T04:05:40;100625.18;;;-0.90;60.64
61761;BME280;47664;51.660;-0.100;2022-12-08T04:08:13;100627.18;;;-1.30;61.28
61761;BME280;47664;51.660;-0.100;2022-12-08T04:10:45;100623.90;;;-1.37;61.89
61761;BME280;47664;51.660;-0.100;2022-12-08T04:13:17;100623.65;;;-1.70;62.22
61761;BME280;47664;51.660;-0.100;2022-12-08T04:15:50;100623.33;;;-1.26;61.84
61761;BME280;47664;51.660;-0.100;2022-12-08T04:18:22;100622.69;;;-1.97;62.36
61761;BME280;47664;51.660;-0.100;2022-12-08T04:20:55;100618.37;;;-1.79;62.68
61761;BME280;47664;51.660;-0.100;2022-12-08T04:23:27;100618.77;;;-1.88;62.77
61761;BME280;47664;51.660;-0.100;2022-12-08T04:25:59;100618.38;;;-1.95;63.11
61761;BME280;47664;51.660;-0.100;2022-12-08T04:28:31;100618.60;;;-1.68;62.81
61761;BME280;47664;51.660;-0.100;2022-12-08T04:31:04;100618.90;;;-1.91;62.50
61761;BME280;47664;51.660;-0.100;2022-12-08T04:33:36;100617.14;;;-1.59;61.90
61761;BME280;47664;51.660;-0.100;2022-12-08T04:36:09;100619.09;;;-1.69;61.51
61761;BME280;47664;51.660;-0.100;2022-12-08T04:38:41;100615.78;;;-1.72;61.34
61761;BME280;47664;51.660;-0.100;2022-12-08T04:41:12;100611.43;;;-1.85;62.79
61761;BME280;47664;51.660;-0.100;2022-12-08T04:43:45;100611.84;;;-2.12;63.32
61761;BME280;47664;51.660;-0.100;2022-12-08T04:46:17;100606.16;;;-2.23;63.85
61761;BME280;47664;51.660;-0.100;2022-12-08T04:48:49;100603.75;;;-2.15;64.40
61761;BME280;47664;51.660;-0.100;2022-12-08T04:51:23;100606.02;;;-2.58;64.70
61761;BME280;47664;51.660;-0.100;2022-12-08T04:53:55;100608.62;;;-1.92;64.05
61761;BME280;47664;51.660;-0.100;2022-12-08T04:56:27;100607.42;;;-2.21;63.95
61761;BME280;47664;51.660;-0.100;2022-12-08T04:58:59;100598.30;;;-1.58;63.54
61761;BME280;47664;51.660;-0.100;2022-12-08T05:01:31;100594.20;;;-2.18;63.30
61761;BME280;47664;51.660;-0.100;2022-12-08T05:04:04;100592.16;;;-2.31;63.72
61761;BME280;47664;51.660;-0.100;2022-12-08T05:06:36;100593.93;;;-2.42;64.53
61761;BME280;47664;51.660;-0.100;2022-12-08T05:09:08;100595.94;;;-2.46;64.66
61761;BME280;47664;51.660;-0.100;2022-12-08T05:11:40;100591.51;;;-2.43;65.05
61761;BME280;47664;51.660;-0.100;2022-12-08T05:14:15;100587.94;;;-2.44;64.34
61761;BME280;47664;51.660;-0.100;2022-12-08T05:16:48;100585.15;;;-2.58;64.61
61761;BME280;47664;51.660;-0.100;2022-12-08T05:19:21;100580.00;;;-2.17;63.86
61761;BME280;47664;51.660;-0.100;2022-12-08T05:21:53;100580.05;;;-2.21;63.80
61761;BME280;47664;51.660;-0.100;2022-12-08T05:24:25;100578.97;;;-2.28;64.49
61761;BME280;47664;51.660;-0.100;2022-12-08T05:26:57;100581.54;;;-2.34;64.21
61761;BME280;47664;51.660;-0.100;2022-12-08T05:29:30;100582.21;;;-1.66;63.34
61761;BME280;47664;51.660;-0.100;2022-12-08T05:32:02;100585.50;;;-1.66;62.47
61761;BME280;47664;51.660;-0.100;2022-12-08T05:34:34;100585.09;;;-1.54;62.01
61761;BME280;47664;51.660;-0.100;2022-12-08T05:37:06;100581.88;;;-1.95;63.08
61761;BME280;47664;51.660;-0.100;2022-12-08T05:39:38;100578.94;;;-2.00;63.20
61761;BME280;47664;51.660;-0.100;2022-12-08T05:42:11;100573.35;;;-1.99;63.17
61761;BME280;47664;51.660;-0.100;2022-12-08T05:44:43;100570.57;;;-2.21;63.78
61761;BME280;47664;51.660;-0.100;2022-12-08T05:47:16;100571.02;;;-2.01;63.28
61761;BME280;47664;51.660;-0.100;2022-12-08T05:49:48;100573.98;;;-1.91;63.37
61761;BME280;47664;51.660;-0.100;2022-12-08T05:52:20;100575.98;;;-1.53;61.49
61761;BME280;47664;51.660;-0.100;2022-12-08T05:54:52;100574.33;;;-1.19;60.31
61761;BME280;47664;51.660;-0.100;2022-12-08T05:57:24;100572.04;;;-0.78;59.45
61761;BME280;47664;51.660;-0.100;2022-12-08T05:59:56;100574.58;;;-0.83;59.20
61761;BME280;47664;51.660;-0.100;2022-12-08T06:02:28;100568.88;;;-0.97;59.68
61761;BME280;47664;51.660;-0.100;2022-12-08T06:05:00;100559.83;;;-1.08;58.97
61761;BME280;47664;51.660;-0.100;2022-12-08T06:07:32;100564.87;;;-1.02;59.48
61761;BME280;47664;51.660;-0.100;2022-12-08T06:10:05;100565.66;;;-0.64;59.48
61761;BME280;47664;51.660;-0.100;2022-12-08T06:12:37;100563.46;;;-0.60;57.87
61761;BME280;47664;51.660;-0.100;2022-12-08T06:15:10;100560.50;;;-0.32;57.67
61761;BME280;47664;51.660;-0.100;2022-12-08T06:17:42;100557.82;;;-0.30;56.88
61761;BME280;47664;51.660;-0.100;2022-12-08T06:20:15;100554.75;;;-0.13;56.37
61761;BME280;47664;51.660;-0.100;2022-12-08T06:22:47;100558.11;;;-0.36;56.37
61761;BME280;47664;51.660;-0.100;2022-12-08T06:25:20;100559.09;;;-0.24;56.25
61761;BME280;47664;51.660;-0.100;2022-12-08T06:27:52;100559.40;;;-0.50;56.71
61761;BME280;47664;51.660;-0.100;2022-12-08T06:30:24;100558.56;;;-0.68;57.87
61761;BME280;47664;51.660;-0.100;2022-12-08T06:32:57;100556.31;;;-0.21;56.69
61761;BME280;47664;51.660;-0.100;2022-12-08T06:35:29;100559.83;;;-0.52;56.79
61761;BME280;47664;51.660;-0.100;2022-12-08T06:38:01;100558.44;;;-0.43;57.01
61761;BME280;47664;51.660;-0.100;2022-12-08T06:40:33;100553.30;;;-0.36;56.75
61761;BME280;47664;51.660;-0.100;2022-12-08T06:43:05;100555.77;;;-0.27;56.67
61761;BME280;47664;51.660;-0.100;2022-12-08T06:45:39;100553.93;;;-0.56;56.96
61761;BME280;47664;51.660;-0.100;2022-12-08T06:48:12;100555.17;;;-0.61;57.79
61761;BME280;47664;51.660;-0.100;2022-12-08T06:50:44;100560.83;;;-0.41;56.69
61761;BME280;47664;51.660;-0.100;2022-12-08T06:53:17;100563.72;;;0.04;55.72
61761;BME280;47664;51.660;-0.100;2022-12-08T06:55:50;100565.52;;;-0.13;55.53
61761;BME280;47664;51.660;-0.100;2022-12-08T06:58:23;100562.16;;;-0.01;55.38
61761;BME280;47664;51.660;-0.100;2022-12-08T07:00:55;100556.11;;;0.24;55.25
61761;BME280;47664;51.660;-0.100;2022-12-08T07:03:27;100556.48;;;-0.09;55.12
61761;BME280;47664;51.660;-0.100;2022-12-08T07:06:00;100554.55;;;0.01;54.93
61761;BME280;47664;51.660;-0.100;2022-12-08T07:08:33;100554.33;;;-0.19;55.66
61761;BME280;47664;51.660;-0.100;2022-12-08T07:11:06;100552.39;;;0.11;55.45
61761;BME280;47664;51.660;-0.100;2022-12-08T07:13:38;100551.76;;;-0.35;56.10
61761;BME280;47664;51.660;-0.100;2022-12-08T07:16:11;100554.53;;;-0.34;55.77
61761;BME280;47664;51.660;-0.100;2022-12-08T07:18:44;100554.95;;;-0.05;55.85
61761;BME280;47664;51.660;-0.100;2022-12-08T07:21:17;100552.63;;;-0.14;55.51
61761;BME280;47664;51.660;-0.100;2022-12-08T07:23:50;100549.39;;;-0.10;55.40
61761;BME280;47664;51.660;-0.100;2022-12-08T07:26:23;100546.44;;;0.03;54.80
61761;BME280;47664;51.660;-0.100;2022-12-08T07:28:55;100543.21;;;0.40;54.68
61761;BME280;47664;51.660;-0.100;2022-12-08T07:31:28;100546.29;;;-0.15;54.70
61761;BME280;47664;51.660;-0.100;2022-12-08T07:34:01;100550.71;;;0.11;54.89
61761;BME280;47664;51.660;-0.100;2022-12-08T07:36:33;100551.09;;;-0.33;56.20
61761;BME280;47664;51.660;-0.100;2022-12-08T07:39:05;100546.91;;;-0.49;57.02
61761;BME280;47664;51.660;-0.100;2022-12-08T07:41:38;100544.73;;;-0.46;56.96
61761;BME280;47664;51.660;-0.100;2022-12-08T07:44:10;100549.10;;;-0.81;57.55
61761;BME280;47664;51.660;-0.100;2022-12-08T07:46:42;100546.16;;;0.01;56.66
61761;BME280;47664;51.660;-0.100;2022-12-08T07:49:15;100545.86;;;-0.45;56.54
61761;BME280;47664;51.660;-0.100;2022-12-08T07:51:47;100551.93;;;-0.62;57.99
61761;BME280;47664;51.660;-0.100;2022-12-08T07:54:20;100552.02;;;-1.79;59.43
61761;BME280;47664;51.660;-0.100;2022-12-08T07:56:52;100552.54;;;-1.29;59.51
61761;BME280;47664;51.660;-0.100;2022-12-08T07:59:25;100551.16;;;-1.12;59.58
61761;BME280;47664;51.660;-0.100;2022-12-08T08:01:57;100544.46;;;-1.21;59.08
61761;BME280;47664;51.660;-0.100;2022-12-08T08:04:29;100544.92;;;-0.66;58.54
61761;BME280;47664;51.660;-0.100;2022-12-08T08:07:01;100544.90;;;-0.91;58.82
61761;BME280;47664;51.660;-0.100;2022-12-08T08:09:34;100548.79;;;-1.41;60.05
61761;BME280;47664;51.660;-0.100;2022-12-08T08:12:07;100550.89;;;-1.84;60.78
61761;BME280;47664;51.660;-0.100;2022-12-08T08:14:40;100550.82;;;-1.48;61.69
61761;BME280;47664;51.660;-0.100;2022-12-08T08:17:13;100549.25;;;-1.44;60.96
61761;BME280;47664;51.660;-0.100;2022-12-08T08:19:45;100547.13;;;-1.68;61.25
61761;BME280;47664;51.660;-0.100;2022-12-08T08:22:17;100546.59;;;-1.84;61.58
61761;BME280;47664;51.660;-0.100;2022-12-08T08:24:50;100547.06;;;-1.33;61.33
61761;BME280;47664;51.660;-0.100;2022-12-08T08:27:22;100543.76;;;-1.38;60.45
61761;BME280;47664;51.660;-0.100;2022-12-08T08:29:54;100542.50;;;-1.38;60.61
61761;BME280;47664;51.660;-0.100;2022-12-08T08:32:27;100540.36;;;-1.83;61.43
61761;BME280;47664;51.660;-0.100;2022-12-08T08:34:59;100537.61;;;-1.43;61.70
61761;BME280;47664;51.660;-0.100;2022-12-08T08:37:31;100528.53;;;-1.35;61.14
61761;BME280;47664;51.660;-0.100;2022-12-08T08:40:03;100527.98;;;-1.38;61.31
61761;BME280;47664;51.660;-0.100;2022-12-08T08:42:36;100522.20;;;-1.47;61.08
61761;BME280;47664;51.660;-0.100;2022-12-08T08:45:09;100521.46;;;-1.33;60.60
61761;BME280;47664;51.660;-0.100;2022-12-08T08:47:41;100518.95;;;-1.52;60.85
61761;BME280;47664;51.660;-0.100;2022-12-08T08:50:13;100519.37;;;-1.58;61.56
61761;BME280;47664;51.660;-0.100;2022-12-08T08:52:45;100520.08;;;-1.87;61.93
61761;BME280;47664;51.660;-0.100;2022-12-08T08:55:18;100518.96;;;-1.88;61.87
61761;BME280;47664;51.660;-0.100;2022-12-08T08:57:50;100521.31;;;-1.75;61.95
61761;BME280;47664;51.660;-0.100;2022-12-08T09:00:22;100522.21;;;-1.50;62.07
61761;BME280;47664;51.660;-0.100;2022-12-08T09:02:55;100527.89;;;-1.37;61.58
61761;BME280;47664;51.660;-0.100;2022-12-08T09:05:27;100526.25;;;-1.08;61.32
61761;BME280;47664;51.660;-0.100;2022-12-08T09:07:59;100529.40;;;-0.97;60.90
61761;BME280;47664;51.660;-0.100;2022-12-08T09:10:31;100528.33;;;-0.84;60.68
61761;BME280;47664;51.660;-0.100;2022-12-08T09:13:03;100525.62;;;-1.09;60.79
61761;BME280;47664;51.660;-0.100;2022-12-08T09:15:35;100520.92;;;-1.07;61.21
61761;BME280;47664;51.660;-0.100;2022-12-08T09:18:08;100522.04;;;-0.98;61.11
61761;BME280;47664;51.660;-0.100;2022-12-08T09:20:41;100514.75;;;-0.99;61.38
61761;BME280;47664;51.660;-0.100;2022-12-08T09:23:13;100515.92;;;-1.08;61.36
61761;BME280;47664;51.660;-0.100;2022-12-08T09:25:47;100515.69;;;-1.10;60.98
61761;BME280;47664;51.660;-0.100;2022-12-08T09:28:20;100514.06;;;-1.12;61.07
61761;BME280;47664;51.660;-0.100;2022-12-08T09:30:52;100507.88;;;-0.96;60.56
61761;BME280;47664;51.660;-0.100;2022-12-08T09:33:24;100506.75;;;-1.04;60.33
61761;BME280;47664;51.660;-0.100;2022-12-08T09:36:01;100505.08;;;-0.52;60.20
61761;BME280;47664;51.660;-0.100;2022-12-08T09:38:34;100508.69;;;-0.77;60.66
61761;BME280;47664;51.660;-0.100;2022-12-08T09:41:11;100504.73;;;-0.63;60.38
61761;BME280;47664;51.660;-0.100;2022-12-08T09:43:51;100503.81;;;-0.92;61.12
61761;BME280;47664;51.660;-0.100;2022-12-08T09:46:25;100503.97;;;-0.65;61.11
61761;BME280;47664;51.660;-0.100;2022-12-08T09:49:01;100502.66;;;-0.50;60.80
61761;BME280;47664;51.660;-0.100;2022-12-08T09:51:33;100500.99;;;-0.66;60.84
61761;BME280;47664;51.660;-0.100;2022-12-08T09:54:11;100497.39;;;-1.01;61.46
61761;BME280;47664;51.660;-0.100;2022-12-08T09:56:46;100491.01;;;-0.86;61.83
61761;BME280;47664;51.660;-0.100;2022-12-08T09:59:21;100489.58;;;-1.19;61.77
61761;BME280;47664;51.660;-0.100;2022-12-08T10:01:55;100488.55;;;-0.82;61.31
61761;BME280;47664;51.660;-0.100;2022-12-08T10:04:28;100489.60;;;-0.67;61.58
61761;BME280;47664;51.660;-0.100;2022-12-08T10:07:03;100489.84;;;-0.07;61.29
61761;BME280;47664;51.660;-0.100;2022-12-08T10:09:41;100485.16;;;-0.04;60.14
61761;BME280;47664;51.660;-0.100;2022-12-08T10:12:16;100481.81;;;-0.07;59.48
61761;BME280;47664;51.660;-0.100;2022-12-08T10:14:52;100482.46;;;-0.14;59.75
61761;BME280;47664;51.660;-0.100;2022-12-08T10:17:30;100481.80;;;-0.19;59.29
61761;BME280;47664;51.660;-0.100;2022-12-08T10:20:09;100477.61;;;0.37;59.00
61761;BME280;47664;51.660;-0.100;2022-12-08T10:22:43;100473.17;;;0.83;58.14
61761;BME280;47664;51.660;-0.100;2022-12-08T10:25:17;100473.72;;;0.61;57.74
61761;BME280;47664;51.660;-0.100;2022-12-08T10:27:51;100471.91;;;1.14;56.83
61761;BME280;47664;51.660;-0.100;2022-12-08T10:30:25;100477.14;;;0.72;56.75
61761;BME280;47664;51.660;-0.100;2022-12-08T10:32:58;100477.91;;;0.54;57.82
61761;BME280;47664;51.660;-0.100;2022-12-08T10:35:43;100477.47;;;0.72;58.29
61761;BME280;47664;51.660;-0.100;2022-12-08T10:38:19;100473.05;;;0.77;58.93
61761;BME280;47664;51.660;-0.100;2022-12-08T10:40:53;100470.86;;;0.48;59.21
61761;BME280;47664;51.660;-0.100;2022-12-08T10:43:29;100468.22;;;0.51;58.89
61761;BME280;47664;51.660;-0.100;2022-12-08T10:46:08;100471.53;;;0.39;59.56
61761;BME280;47664;51.660;-0.100;2022-12-08T10:48:50;100473.39;;;0.39;59.91
61761;BME280;47664;51.660;-0.100;2022-12-08T10:51:23;100471.57;;;0.75;58.32
61761;BME280;47664;51.660;-0.100;2022-12-08T10:53:55;100467.56;;;0.82;57.58
61761;BME280;47664;51.660;-0.100;2022-12-08T10:56:29;100462.32;;;0.71;58.07
61761;BME280;47664;51.660;-0.100;2022-12-08T10:59:06;100460.08;;;0.47;58.78
61761;BME280;47664;51.660;-0.100;2022-12-08T11:01:44;100454.34;;;0.63;59.20
61761;BME280;47664;51.660;-0.100;2022-12-08T11:04:19;100449.38;;;0.66;58.80
61761;BME280;47664;51.660;-0.100;2022-12-08T11:06:54;100449.28;;;0.70;59.22
61761;BME280;47664;51.660;-0.100;2022-12-08T11:09:35;100448.88;;;0.78;59.34
61761;BME280;47664;51.660;-0.100;2022-12-08T11:12:07;100449.35;;;1.04;57.92
61761;BME280;47664;51.660;-0.100;2022-12-08T11:14:46;100451.93;;;1.64;57.30
61761;BME280;47664;51.660;-0.100;2022-12-08T11:17:23;100443.74;;;1.71;56.39
61761;BME280;47664;51.660;-0.100;2022-12-08T11:19:56;100440.45;;;1.31;56.47
61761;BME280;47664;51.660;-0.100;2022-12-08T11:22:30;100435.16;;;1.21;57.29
61761;BME280;47664;51.660;-0.100;2022-12-08T11:25:15;100435.16;;;1.37;57.07
61761;BME280;47664;51.660;-0.100;2022-12-08T11:27:50;100437.52;;;1.34;57.29
61761;BME280;47664;51.660;-0.100;2022-12-08T11:30:25;100434.04;;;0.99;58.03
61761;BME280;47664;51.660;-0.100;2022-12-08T11:33:05;100434.62;;;1.19;57.72
61761;BME280;47664;51.660;-0.100;2022-12-08T11:35:44;100430.30;;;1.05;57.78
61761;BME280;47664;51.660;-0.100;2022-12-08T11:38:20;100429.49;;;1.04;57.60
61761;BME280;47664;51.660;-0.100;2022-12-08T11:40:55;100428.49;;;1.44;57.24
61761;BME280;47664;51.660;-0.100;2022-12-08T11:43:30;100428.32;;;1.11;57.21
61761;BME280;47664;51.660;-0.100;2022-12-08T11:46:10;100426.53;;;0.93;57.66
61761;BME280;47664;51.660;-0.100;2022-12-08T11:48:45;100428.99;;;1.17;57.35
61761;BME280;47664;51.660;-0.100;2022-12-08T11:51:18;100426.86;;;1.08;56.72
61761;BME280;47664;51.660;-0.100;2022-12-08T11:53:56;100425.77;;;1.59;55.74
61761;BME280;47664;51.660;-0.100;2022-12-08T11:56:32;100420.76;;;1.67;56.16
61761;BME280;47664;51.660;-0.100;2022-12-08T11:59:09;100415.26;;;1.60;56.19
61761;BME280;47664;51.660;-0.100;2022-12-08T12:01:43;100412.36;;;1.38;56.33
61761;BME280;47664;51.660;-0.100;2022-12-08T12:04:17;100412.84;;;1.59;56.29
61761;BME280;47664;51.660;-0.100;2022-12-08T12:07:46;100409.65;;;1.80;55.79
61761;BME280;47664;51.660;-0.100;2022-12-08T12:10:39;100409.50;;;1.72;55.71
61761;BME280;47664;51.660;-0.100;2022-12-08T12:13:22;100409.18;;;1.75;56.28
61761;BME280;47664;51.660;-0.100;2022-12-08T12:16:44;100401.60;;;1.65;56.04
61761;BME280;47664;51.660;-0.100;2022-12-08T12:19:21;100396.50;;;1.50;56.34
61761;BME280;47664;51.660;-0.100;2022-12-08T12:21:52;100395.95;;;1.54;56.31
61761;BME280;47664;51.660;-0.100;2022-12-08T12:24:29;100392.25;;;1.73;56.12
61761;BME280;47664;51.660;-0.100;2022-12-08T12:27:00;100391.53;;;1.38;56.10
61761;BME280;47664;51.660;-0.100;2022-12-08T12:29:35;100389.51;;;1.39;55.59
61761;BME280;47664;51.660;-0.100;2022-12-08T12:32:11;100390.81;;;1.32;56.35
61761;BME280;47664;51.660;-0.100;2022-12-08T12:34:47;100386.69;;;1.65;56.12
61761;BME280;47664;51.660;-0.100;2022-12-08T12:37:24;100384.55;;;1.71;55.16
61761;BME280;47664;51.660;-0.100;2022-12-08T12:40:10;100379.86;;;1.81;54.75
61761;BME280;47664;51.660;-0.100;2022-12-08T12:43:10;100375.51;;;2.29;54.71
61761;BME280;47664;51.660;-0.100;2022-12-08T12:45:43;100373.46;;;2.08;53.71
61761;BME280;47664;51.660;-0.100;2022-12-08T12:48:21;100367.32;;;2.34;53.39
61761;BME280;47664;51.660;-0.100;2022-12-08T12:50:55;100365.72;;;2.44;53.81
61761;BME280;47664;51.660;-0.100;2022-12-08T12:53:50;100363.90;;;2.56;53.80
61761;BME280;47664;51.660;-0.100;2022-12-08T12:56:52;100367.08;;;2.06;54.03
61761;BME280;47664;51.660;-0.100;2022-12-08T12:59:42;100358.79;;;2.44;53.81
61761;BME280;47664;51.660;-0.100;2022-12-08T13:02:18;100354.11;;;2.52;54.38
61761;BME280;47664;51.660;-0.100;2022-12-08T13:04:56;100348.26;;;2.38;54.23
61761;BME280;47664;51.660;-0.100;2022-12-08T13:07:31;100342.16;;;2.82;53.69
61761;BME280;47664;51.660;-0.100;2022-12-08T13:10:10;100339.38;;;2.73;52.92
61761;BME280;47664;51.660;-0.100;2022-12-08T13:13:00;100344.53;;;2.37;54.24
61761;BME280;47664;51.660;-0.100;2022-12-08T13:15:33;100346.76;;;2.09;54.11
61761;BME280;47664;51.660;-0.100;2022-12-08T13:18:06;100347.56;;;2.51;53.44
61761;BME280;47664;51.660;-0.100;2022-12-08T13:20:49;100343.48;;;2.28;52.91
61761;BME280;47664;51.660;-0.100;2022-12-08T13:23:28;100340.64;;;2.11;53.54